Whale Point, California Weather observations

Data are for observation ending at time listed.
 Day   Time    Ave.   Ave.  Ave.  Vector   Max.   Stn.    Total    Solar   Ave.  
  of    of     Air    Rel.  Wind   Wind    Wind   Baro.  Precip.   Rad.    Soil  
Year   Day     Temp.  Hum.  Speed  Dir.    Gust   Pres.                    Temp. 
2016   (PST)    F      %     mph   deg.    mph     mb.     in.     W/m2     F   
------------------------------------------------------------------------------
 177   17:40   63.2    62    2.7   211      6.0   990.9    0.00     158    83.8
 177   17:50   62.1    65    1.5   216      3.9   990.9    0.00     291    84.0
 177   18:00   62.2    65    1.4   217      3.9   990.9    0.00     266    84.1
 177   18:10   63.2    63    0.7   293      3.8   990.9    0.00     232    84.2
 177   18:20   64.2    60    0.8   308      2.3   990.5    0.00     173    84.3
 177   18:30   63.2    62    1.4   202      2.7   990.5    0.00     100    84.4
 177   18:40   62.2    64    0.7   256      3.0   990.5    0.00     129    84.5
 177   18:50   62.1    65    1.8    64      3.7   990.5    0.00     101    84.5
 177   19:00   61.2    66    1.4    47      3.0   990.5    0.00      61    84.6
 177   19:10   66.5    57    1.2   154      3.5   990.5    0.00      34    84.7
 177   19:20   70.0    48    1.9   142      3.9   990.5    0.00      10    84.7
 177   19:30   71.3    42    0.6   136      1.8   990.5    0.00       5    84.7
 177   19:40   71.4    43    1.5    50      4.7   990.5    0.00       2    84.8
 177   19:50   72.4    39    2.2   155      3.4   990.5    0.00       1    84.7
 177   20:00   72.9    39    1.3   184      2.8   990.5    0.00       0    84.7
 177   20:10   65.0    56    1.8   107      5.0   990.9    0.00       0    84.7
 177   20:20   68.3    45    0.7    90      2.6   990.5    0.00       0    84.7
 177   20:30   73.3    34    1.6   140      3.4   990.9    0.00       0    84.6
 177   20:40   66.1    52    2.9   128      5.8   990.9    0.00       0    84.5
 177   20:50   58.3    70    3.2   178      6.7   991.2    0.00       0    84.4
 177   21:00   56.0    77    2.2    20      3.9   991.2    0.00       0    84.3
 177   21:10   56.6    74    1.4   187      2.7   991.2    0.00       0    84.2
 177   21:20   55.4    78    1.1   208      3.5   991.2    0.00       0    84.1
 177   21:30   55.3    78    3.8   150      5.8   991.2    0.00       0    84.0
 177   21:40   56.1    75    2.0   165      4.6   991.5    0.00       0    83.8
 177   21:50   58.1    68    2.5    20      4.9   991.5    0.00       0    83.7
 177   22:00   65.0    44    1.1   147      3.7   991.2    0.00       0    83.5
 177   22:10   66.7    43    1.1   134      2.9   991.5    0.00       0    83.4
 177   22:20   63.6    48    1.7     4      6.1   991.2    0.00       0    83.2
 177   22:30   70.4    27    2.3    28      7.1   991.2    0.00       0    83.1
 177   22:40   75.3    23    2.0   168      4.5   991.2    0.00       0    82.9
 177   22:50   73.0    28    2.8   169      6.4   991.5    0.00       0    82.8
 177   23:00   69.5    33    1.5   154      3.4   991.5    0.00       0    82.7
 177   23:10   69.8    31    0.6    26      2.0   991.5    0.00       0    82.5
 177   23:20   70.1    30    0.5   163      2.0   991.5    0.00       0    82.4
 177   23:30   69.0    33    1.7     8      3.4   991.5    0.00       0    82.3
 177   23:40   67.0    34    1.1    48      3.6   991.5    0.00       0    82.1
 177   23:50   72.5    23    1.3   161      2.6   991.5    0.00       0    82.0
 178    0:00   72.5    24    0.9    60      2.4   991.5    0.00       0    81.8
 178    0:10   69.8    27    1.4    90      3.8   991.5    0.00       0    81.7
 178    0:20   69.2    29    1.9   128      3.9   991.5    0.00       0    81.5
 178    0:30   64.1    45    2.3   176      5.2   991.5    0.00       0    81.4
 178    0:40   63.5    41    3.2     9      5.2   991.5    0.00       0    81.3
 178    0:50   66.7    31    0.8   195      2.6   991.5    0.00       0    81.1
 178    1:00   71.6    22    2.5    62      6.3   991.2    0.00       0    81.0
 178    1:10   81.8    12    3.1    66      6.6   991.2    0.00       0    80.8
 178    1:20   74.8    24    1.3   360      4.2   991.2    0.00       0    80.6
 178    1:30   67.0    34    1.5    19      3.9   991.2    0.00       0    80.5
 178    1:40   61.8    46    1.1   358      4.6   991.2    0.00       0    80.4
 178    1:50   59.7    55    1.1   174      2.8   991.2    0.00       0    80.3
 178    2:00   59.9    53    1.9     9      3.3   991.2    0.00       0    80.2
 178    2:10   60.1    51    1.9   163      5.5   991.2    0.00       0    80.1
 178    2:20   61.3    51    2.2   173      4.6   991.2    0.00       0    79.9
 178    2:30   63.6    44    0.5   168      2.6   991.2    0.00       0    79.8
 178    2:40   63.7    43    0.6   355      1.8   991.2    0.00       0    79.6
 178    2:50   66.0    35    1.7   144      3.2   991.5    0.00       0    79.5
 178    3:00   66.3    38    1.5   172      2.9   991.5    0.00       0    79.4
 178    3:10   63.3    41    3.4    17      5.6   991.5    0.00       0    79.2
 178    3:20   66.9    28    1.0   160      2.9   991.5    0.00       0    79.1
 178    3:30   67.2    24    0.6    39      2.6   991.5    0.00       0    79.0
 178    3:40   70.5    17    0.7   108      4.2   991.5    0.00       0    78.9
 178    3:50   73.2    19    0.8   176      2.3   991.5    0.00       0    78.7
 178    4:00   72.6    15    1.0    48      2.9   991.5    0.00       0    78.6
 178    4:10   77.8     8    5.2    57      8.6   991.5    0.00       0    78.5
 178    4:20   79.6     8    4.3    53      7.7   991.5    0.00       0    78.3
 178    4:30   79.4     8    3.8    54      6.5   991.5    0.00       0    78.2
 178    4:40   72.5    22    1.8    72      4.5   991.5    0.00       1    78.1
 178    4:50   67.5    33    1.1   311      3.9   991.5    0.00       3    78.1
 178    5:00   61.1    44    1.4    13      3.9   991.5    0.00       5    78.0
 178    5:10   61.3    43    0.6     6      2.1   991.5    0.00       8    77.9
 178    5:20   62.3    40    1.3   154      3.8   991.5    0.00      11    77.8
 178    5:30   62.0    45    1.1   161      3.8   991.9    0.00      13    77.7
 178    5:40   64.1    33    1.3    52      3.1   991.5    0.00      15    77.5
 178    5:50   65.9    31    1.9   164      3.4   991.5    0.00      17    77.4
 178    6:00   66.6    27    2.6   158      4.0   991.9    0.00      19    77.3
 178    6:10   67.4    26    2.3   150      3.4   991.9    0.00      22    77.2
 178    6:20   67.6    29    1.4   160      2.8   991.9    0.00      24    77.1
 178    6:30   66.5    30    1.1   360      3.4   991.9    0.00      26    77.0
 178    6:40   67.3    28    0.5   182      2.5   992.2    0.00      28    76.9
 178    6:50   69.7    22    1.3   158      3.6   992.2    0.00     179    76.8
 178    7:00   74.9    15    2.0   152      2.9   992.2    0.00     420    76.7
 178    7:10   78.4    13    0.9   186      2.5   992.2    0.00     451    76.4
 178    7:20   79.2    13    1.0   136      2.9   992.6    0.00     497    76.3
 178    7:30   78.7    14    1.1    19      2.3   992.2    0.00     540    76.2
 178    7:40   81.6    13    0.7   181      1.7   992.6    0.00     566    76.2
 178    7:50   81.1    15    1.1   160      2.0   992.6    0.00     531    76.1
 178    8:00   71.4    37    2.8   175      4.3   992.6    0.00     633    76.1
 178    8:10   64.7    49    2.2   195      5.0   992.6    0.00     665    76.1
 178    8:20   63.4    52    1.7   195      3.4   992.6    0.00     698    76.0
 178    8:30   66.0    44    1.9   194      3.3   992.6    0.00     729    76.0
 178    8:40   65.4    48    1.5   188      3.4   992.6    0.00     744    75.9
 178    8:50   66.6    49    0.9   340      2.6   992.6    0.00     786    75.9
 178    9:00   66.8    52    0.7   314      2.3   992.6    0.00     812    75.9
 178    9:10   66.6    47    0.8   263      2.3   992.6    0.00     837    75.9
 178    9:20   68.1    46    0.6   252      1.6   992.6    0.00     862    75.9
 178    9:30   69.2    45    1.5   239      3.5   992.9    0.00     886    75.9
 178    9:40   69.4    43    1.5   211      3.6   992.9    0.00     909    75.9
 178    9:50   71.1    44    0.7   264      1.5   992.9    0.00     931    76.0
 178   10:00   71.5    45    0.7   342      1.9   992.9    0.00     952    76.0
 178   10:10   71.2    47    0.7    10      2.2   992.9    0.00     972    76.1
 178   10:20   67.9    52    0.8   159      2.7   992.9    0.00     989    76.2
 178   10:30   66.7    54    1.0   200      2.7   992.9    0.00    1005    76.3
 178   10:40   61.6    64    2.5   207      4.9   992.9    0.00    1020    76.4
 178   10:50   58.9    70    2.4   211      4.9   992.9    0.00    1033    76.6
 178   11:00   59.7    67    2.3   208      4.2   992.9    0.00    1044    76.7
 178   11:10   60.3    66    2.9   205      6.1   992.9    0.00    1054    76.8
 178   11:20   61.1    66    2.3   207      4.7   992.9    0.00    1063    77.0
 178   11:30   62.6    63    1.8   201      4.2   992.9    0.00    1070    77.1
 178   11:40   63.3    62    2.4   196      5.0   992.9    0.00    1076    77.3
 178   11:50   62.9    62    2.8   205      4.2   992.9    0.00    1079    77.5
 178   12:00   64.7    60    0.9   199      3.6   992.9    0.00    1081    77.6
 178   12:10   65.7    57    2.7   195      5.8   992.9    0.00    1082    77.8
 178   12:20   64.1    60    3.5   192      5.6   992.9    0.00    1080    78.0
 178   12:30   63.1    62    3.4   201      6.1   992.9    0.00    1078    78.2
 178   12:40   62.2    63    4.2   199      7.3   992.9    0.00    1073    78.3
 178   12:50   61.9    64    3.8   208      6.7   992.9    0.00    1066    78.5
 178   13:00   61.3    66    3.4   209      5.2   992.6    0.00    1060    78.7
 178   13:10   61.5    66    3.9   212      6.9   992.6    0.00    1051    78.9
 178   13:20   60.9    67    3.0   216      5.9   992.6    0.00    1041    79.1
 178   13:30   61.9    65    3.1   229      5.8   992.6    0.00    1029    79.3
 178   13:40   62.5    64    3.2   220      6.2   992.6    0.00    1016    79.5
 178   13:50   61.7    65    4.1   213      7.6   992.6    0.00    1001    79.8
 178   14:00   60.5    68    3.6   209      6.9   992.6    0.00     984    80.0
 178   14:10   61.1    67    3.0   213      6.8   992.6    0.00     966    80.3
 178   14:20   62.2    66    1.9   219      4.4   992.2    0.00     947    80.5
 178   14:30   63.2    62    3.2   221      6.6   992.2    0.00     925    80.8
 178   14:40   62.8    64    2.7   225      5.3   991.9    0.00     903    81.0
 178   14:50   62.8    63    3.2   208      6.9   991.9    0.00     879    81.3
 178   15:00   61.9    65    2.9   220      6.1   991.5    0.00     856    81.5
 178   15:10   61.8    65    3.1   213      7.1   991.5    0.00     828    81.8
 178   15:20   62.1    64    3.1   220      7.8   991.5    0.00     800    82.0
 178   15:30   63.3    62    1.8   256      7.2   991.5    0.00     772    82.3
 178   15:40   64.8    59    1.9   216      4.7   991.5    0.00     743    82.5
 178   15:50   64.6    60    1.6   223      4.0   991.5    0.00     712    82.8
 178   16:00   64.5    60    2.8   201      6.4   991.5    0.00     678    83.0
 178   16:10   64.3    61    2.2   197      4.9   991.5    0.00     634    83.2
 178   16:20   64.1    61    2.5   195      6.9   991.5    0.00     606    83.5
 178   16:30   66.0    57    1.7   182      4.5   991.5    0.00     576    83.6
 178   16:40   67.4    54    1.8   179      5.2   991.5    0.00     499    83.8
 178   16:50   71.4    46    1.7   195      4.2   991.5    0.00     387    84.0
 178   17:00   67.3    54    2.6   178      5.3   991.2    0.00     462    84.2
 178   17:10   67.2    55    2.0   169      5.6   991.2    0.00     120    84.4
 178   17:20   67.8    54    2.5   112      6.6   991.2    0.00      40    84.5
 178   17:30   68.4    52    2.2   160      6.4   991.2    0.00      39    84.7

Return to Whale Point graphs page.


Western Regional Climate Center,wrcc@dri.edu